Terminal Aerodrome Forecast
Issued by NWS

Home | Current Version | Previous Version | Text Only | Print | Product List | Glossary On
Versions: 1 2 3 4 5 6 7 8 9 10 11 12 13 14 15 16 17 18 19 20 21 22 23 24 25 26 27 28 29 30 31 32
000
FTUS41 KRNK 290700 AAB
TAFLWB
TAF AMD
KLWB 290700Z 2907/3006 00000KT 1/2SM FG OVC005
      TEMPO 2912/2914 3SM BR OVC015
     FM291400 26005KT P6SM BKN035
     FM291800 28010KT P6SM SCT045
     FM300000 34004KT P6SM OVC100=

USA.gov is the U.S. government's official web portal to all federal, state and local government web resources and services.